createdAt,value
2023-03-07T00:00:12.800Z,3.83
2023-03-07T00:02:14.901Z,3.92
2023-03-07T00:04:17.102Z,2.90
2023-03-07T00:06:19.241Z,4.35
2023-03-07T00:08:21.299Z,3.25
2023-03-07T00:10:23.371Z,2.63
2023-03-07T00:12:25.688Z,5.55
2023-03-07T00:14:27.836Z,4.60
2023-03-07T00:16:29.973Z,3.22
2023-03-07T00:18:32.879Z,3.63
2023-03-07T00:20:34.928Z,2.58
2023-03-07T00:22:37.811Z,3.92
2023-03-07T00:24:40.009Z,5.32
2023-03-07T00:26:42.148Z,4.68
2023-03-07T00:28:47.426Z,2.70
2023-03-07T00:30:49.498Z,3.83
2023-03-07T00:32:51.453Z,2.92
2023-03-07T00:34:54.776Z,3.50
2023-03-07T00:36:56.892Z,3.45
2023-03-07T00:38:59.081Z,3.55
2023-03-07T00:41:05.317Z,2.92
2023-03-07T00:43:07.301Z,3.03
2023-03-07T00:45:11.064Z,2.80
2023-03-07T00:47:13.183Z,3.65
2023-03-07T00:49:15.349Z,4.03
2023-03-07T00:51:19.129Z,3.78
2023-03-07T00:53:21.842Z,3.75
2023-03-07T00:55:23.854Z,4.63
2023-03-07T00:57:25.921Z,5.75
2023-03-07T00:59:29.448Z,3.88
2023-03-07T01:01:31.622Z,2.50
2023-03-07T01:03:34.645Z,4.53
2023-03-07T01:05:40.205Z,4.28
2023-03-07T01:07:42.406Z,4.20
2023-03-07T01:09:44.454Z,3.00
2023-03-07T01:11:46.524Z,4.18
2023-03-07T01:13:48.715Z,4.40
2023-03-07T01:15:50.803Z,2.88
2023-03-07T01:17:52.811Z,3.72
2023-03-07T01:19:54.870Z,5.72
2023-03-07T01:21:57.028Z,3.35
2023-03-07T01:23:59.277Z,5.10
2023-03-07T01:26:01.380Z,2.88
2023-03-07T01:28:04.255Z,3.42
2023-03-07T01:30:07.616Z,2.60
2023-03-07T01:32:09.824Z,4.43
2023-03-07T01:34:12.144Z,6.55
2023-03-07T01:36:19.514Z,8.57
2023-03-07T01:38:21.660Z,4.95
2023-03-07T01:40:25.195Z,6.05
2023-03-07T01:42:30.940Z,5.28
2023-03-07T01:44:55.860Z,9.35
2023-03-07T01:47:00.773Z,6.07
2023-03-07T01:49:09.817Z,6.70
2023-03-07T01:51:12.130Z,6.22
2023-03-07T01:53:15.984Z,8.23
2023-03-07T01:55:23.070Z,4.25
2023-03-07T01:57:31.632Z,4.90
2023-03-07T01:59:37.316Z,5.63
2023-03-07T02:01:39.863Z,4.93
2023-03-07T02:03:45.337Z,5.35
2023-03-07T02:05:53.564Z,3.97
2023-03-07T02:07:58.989Z,2.00
2023-03-07T02:10:02.214Z,2.67
2023-03-07T02:12:04.937Z,3.53
2023-03-07T02:14:07.148Z,1.55
2023-03-07T02:16:09.694Z,4.85
2023-03-07T02:18:16.150Z,2.75
2023-03-07T02:20:24.453Z,4.57
2023-03-07T02:22:27.593Z,3.00
2023-03-07T02:24:37.343Z,2.65
2023-03-07T02:26:44.459Z,3.08
2023-03-07T02:28:48.250Z,2.05
2023-03-07T02:30:55.798Z,5.80
2023-03-07T02:32:57.953Z,3.60
2023-03-07T02:35:00.009Z,3.83
2023-03-07T02:37:05.242Z,3.03
2023-03-07T02:39:07.297Z,5.05
2023-03-07T02:41:12.142Z,3.72
2023-03-07T02:43:14.646Z,3.95
2023-03-07T02:45:19.482Z,3.15
2023-03-07T02:47:21.536Z,4.15
2023-03-07T02:49:23.874Z,3.78
2023-03-07T02:51:25.902Z,3.58
2023-03-07T02:53:28.549Z,2.35
2023-03-07T02:55:31.075Z,3.28
2023-03-07T02:57:33.318Z,3.20
2023-03-07T02:59:35.326Z,3.70
2023-03-07T03:01:37.600Z,4.22
2023-03-07T03:03:39.822Z,4.35
2023-03-07T03:05:41.884Z,4.50
2023-03-07T03:07:43.938Z,3.53
2023-03-07T03:09:46.093Z,4.80
2023-03-07T03:11:48.253Z,4.80
2023-03-07T03:13:50.350Z,2.58
2023-03-07T03:15:56.938Z,2.58
2023-03-07T03:17:59.101Z,3.20
2023-03-07T03:20:01.218Z,5.32
2023-03-07T03:22:03.873Z,2.05
2023-03-07T03:24:08.189Z,4.63
2023-03-07T03:26:11.800Z,2.20
2023-03-07T03:28:13.807Z,4.72
2023-03-07T03:30:16.231Z,3.42
2023-03-07T03:32:18.241Z,4.15
2023-03-07T03:34:20.487Z,3.08
2023-03-07T03:36:26.520Z,6.40
2023-03-07T03:38:28.542Z,5.80
2023-03-07T03:40:31.562Z,2.97
2023-03-07T03:42:33.632Z,2.75
2023-03-07T03:44:35.778Z,4.03
2023-03-07T03:46:38.277Z,2.72
2023-03-07T03:48:41.014Z,3.78
2023-03-07T03:50:43.119Z,4.20
2023-03-07T03:52:45.473Z,2.38
2023-03-07T03:54:47.425Z,4.75
2023-03-07T03:56:49.473Z,3.63
2023-03-07T03:58:53.987Z,2.92
2023-03-07T04:00:56.447Z,2.40
2023-03-07T04:02:58.649Z,4.32
2023-03-07T04:05:00.838Z,4.00
2023-03-07T04:07:04.894Z,3.88
2023-03-07T04:09:07.115Z,4.03
2023-03-07T04:11:09.373Z,3.85
2023-03-07T04:13:11.467Z,2.80
2023-03-07T04:15:13.625Z,4.07
2023-03-07T04:17:15.657Z,2.92
2023-03-07T04:19:18.476Z,2.75
2023-03-07T04:21:21.756Z,2.90
2023-03-07T04:23:25.141Z,5.22
2023-03-07T04:25:27.264Z,3.58
2023-03-07T04:27:29.633Z,5.53
2023-03-07T04:29:31.833Z,3.53
2023-03-07T04:31:33.990Z,4.30
2023-03-07T04:33:36.089Z,3.15
2023-03-07T04:35:38.294Z,3.83
2023-03-07T04:37:40.389Z,3.80
2023-03-07T04:39:42.458Z,3.78
2023-03-07T04:41:44.937Z,3.72
2023-03-07T04:43:47.057Z,2.45
2023-03-07T04:45:49.124Z,4.35
2023-03-07T04:47:51.160Z,4.93
2023-03-07T04:49:53.849Z,3.65
2023-03-07T04:51:56.013Z,3.80
2023-03-07T04:53:58.073Z,3.95
2023-03-07T04:56:01.685Z,5.88
2023-03-07T04:58:04.201Z,4.25
2023-03-07T05:00:09.559Z,4.43
2023-03-07T05:02:13.797Z,3.17
2023-03-07T05:04:15.929Z,4.10
2023-03-07T05:06:18.025Z,3.53
2023-03-07T05:08:20.999Z,3.90
2023-03-07T05:10:22.983Z,4.53
2023-03-07T05:12:25.735Z,4.50
2023-03-07T05:14:27.790Z,5.32
2023-03-07T05:16:30.239Z,6.95
2023-03-07T05:18:32.348Z,3.25
2023-03-07T05:20:34.862Z,3.88
2023-03-07T05:22:37.243Z,4.70
2023-03-07T05:24:39.431Z,6.30
2023-03-07T05:26:41.756Z,4.82
2023-03-07T05:28:43.770Z,3.95
2023-03-07T05:30:47.308Z,4.22
2023-03-07T05:32:49.860Z,3.70
2023-03-07T05:34:52.064Z,4.25
2023-03-07T05:36:54.141Z,4.47
2023-03-07T05:38:57.258Z,4.03
2023-03-07T05:40:59.419Z,5.10
2023-03-07T05:43:01.527Z,4.68
2023-03-07T05:45:04.456Z,4.15
2023-03-07T05:47:06.666Z,4.28
2023-03-07T05:49:09.455Z,5.18
2023-03-07T05:51:11.534Z,4.43
2023-03-07T05:53:13.575Z,4.90
2023-03-07T05:55:16.010Z,5.22
2023-03-07T05:57:18.017Z,4.22
2023-03-07T05:59:20.103Z,4.40
2023-03-07T06:01:22.229Z,4.75
2023-03-07T06:03:24.246Z,4.10
2023-03-07T06:05:26.221Z,4.50
2023-03-07T06:07:28.307Z,7.82
2023-03-07T06:09:30.312Z,5.35
2023-03-07T06:11:33.589Z,4.47
2023-03-07T06:13:35.641Z,7.55
2023-03-07T06:15:37.613Z,5.22
2023-03-07T06:17:40.762Z,6.03
2023-03-07T06:19:42.877Z,5.05
2023-03-07T06:21:45.027Z,5.25
2023-03-07T06:23:47.181Z,6.03
2023-03-07T06:25:49.417Z,4.45
2023-03-07T06:27:51.709Z,4.90
2023-03-07T06:29:54.022Z,5.78
2023-03-07T06:31:56.314Z,6.30
2023-03-07T06:33:58.473Z,5.97
2023-03-07T06:36:00.713Z,7.25
2023-03-07T06:38:03.127Z,6.57
2023-03-07T06:40:06.660Z,8.30
2023-03-07T06:42:09.334Z,10.23
2023-03-07T06:44:11.425Z,9.80
2023-03-07T06:46:13.604Z,8.43
2023-03-07T06:48:15.790Z,7.22
2023-03-07T06:50:26.436Z,9.70
2023-03-07T06:52:32.368Z,9.88
2023-03-07T06:54:34.433Z,13.30
2023-03-07T06:56:36.726Z,9.20
2023-03-07T06:58:39.040Z,8.82
2023-03-07T07:00:41.178Z,11.27
2023-03-07T07:02:43.478Z,10.43
2023-03-07T07:04:45.759Z,9.38
2023-03-07T07:06:48.125Z,9.75
2023-03-07T07:08:50.265Z,7.78
2023-03-07T07:10:53.039Z,9.98
2023-03-07T07:12:56.861Z,10.38
2023-03-07T07:15:02.410Z,10.80
2023-03-07T07:17:04.623Z,9.90
2023-03-07T07:19:06.966Z,9.27
2023-03-07T07:21:09.229Z,10.00
2023-03-07T07:23:11.472Z,9.43
2023-03-07T07:25:13.807Z,9.95
2023-03-07T07:27:20.090Z,12.07
2023-03-07T07:29:23.094Z,9.98
2023-03-07T07:31:25.244Z,8.10
2023-03-07T07:33:27.916Z,8.40
2023-03-07T07:35:29.946Z,9.25
2023-03-07T07:37:32.119Z,7.20
2023-03-07T07:39:56.196Z,8.23
2023-03-07T07:41:58.150Z,9.25
2023-03-07T07:44:00.771Z,8.82
2023-03-07T07:46:05.451Z,10.38
2023-03-07T07:48:10.052Z,7.35
2023-03-07T07:50:14.343Z,7.93
2023-03-07T07:52:18.479Z,7.20
2023-03-07T07:54:20.610Z,6.35
2023-03-07T07:56:23.959Z,5.75
2023-03-07T07:58:26.608Z,6.57
2023-03-07T08:00:29.481Z,5.78
2023-03-07T08:02:31.836Z,9.10
2023-03-07T08:04:35.881Z,7.97
2023-03-07T08:06:38.267Z,8.32
2023-03-07T08:08:40.920Z,10.20
2023-03-07T08:10:44.583Z,9.80
2023-03-07T08:12:53.481Z,13.07
2023-03-07T08:14:55.935Z,14.45
2023-03-07T08:16:58.281Z,15.55
2023-03-07T08:19:01.408Z,11.40
2023-03-07T08:21:03.722Z,11.05
2023-03-07T08:23:06.120Z,11.70
2023-03-07T08:25:16.188Z,8.77
2023-03-07T08:27:18.655Z,12.00
2023-03-07T08:29:21.237Z,11.07
2023-03-07T08:31:25.457Z,14.43
2023-03-07T08:33:27.798Z,8.73
2023-03-07T08:35:31.666Z,8.57
2023-03-07T08:37:36.607Z,9.32
2023-03-07T08:39:39.164Z,6.50
2023-03-07T08:41:41.966Z,8.80
2023-03-07T08:43:44.335Z,5.78
2023-03-07T08:45:46.812Z,8.85
2023-03-07T08:47:49.453Z,12.63
2023-03-07T08:49:51.848Z,4.43
2023-03-07T08:51:54.499Z,2.80
2023-03-07T08:53:59.663Z,4.90
2023-03-07T08:56:06.609Z,4.28
2023-03-07T08:58:09.402Z,6.55
2023-03-07T09:00:13.014Z,3.55
2023-03-07T09:02:18.760Z,6.82
2023-03-07T09:04:21.701Z,4.90
2023-03-07T09:06:24.524Z,3.72
2023-03-07T09:08:27.474Z,4.85
2023-03-07T09:10:30.620Z,3.55
2023-03-07T09:12:36.718Z,5.63
2023-03-07T09:14:39.492Z,6.03
2023-03-07T09:16:41.916Z,9.48
2023-03-07T09:18:44.683Z,6.68
2023-03-07T09:20:47.072Z,3.72
2023-03-07T09:22:52.378Z,7.30
2023-03-07T09:24:57.199Z,4.97
2023-03-07T09:27:00.035Z,6.88
2023-03-07T09:29:02.307Z,3.28
2023-03-07T09:31:09.135Z,6.78
2023-03-07T09:33:12.039Z,4.47
2023-03-07T09:35:14.763Z,3.40
2023-03-07T09:37:20.294Z,6.07
2023-03-07T09:39:22.678Z,10.90
2023-03-07T09:41:34.289Z,8.43
2023-03-07T09:43:45.248Z,5.88
2023-03-07T09:45:56.664Z,6.40
2023-03-07T09:47:59.801Z,4.80
2023-03-07T09:50:04.325Z,5.88
2023-03-07T09:52:16.009Z,8.90
2023-03-07T09:54:27.942Z,7.65
2023-03-07T09:56:38.600Z,8.68
2023-03-07T09:58:45.496Z,4.95
2023-03-07T10:00:54.365Z,5.15
2023-03-07T10:03:00.620Z,4.63
2023-03-07T10:05:09.218Z,7.95
2023-03-07T10:07:15.886Z,10.18
2023-03-07T10:09:22.674Z,5.82
2023-03-07T10:11:46.787Z,4.47
2023-03-07T10:13:59.084Z,6.35
2023-03-07T10:16:10.561Z,7.38
2023-03-07T10:18:16.626Z,4.40
2023-03-07T10:20:25.202Z,6.22
2023-03-07T10:22:36.040Z,6.72
2023-03-07T10:24:43.642Z,6.57
2023-03-07T10:26:58.167Z,7.50
2023-03-07T10:29:09.497Z,8.45
2023-03-07T10:31:21.354Z,6.93
2023-03-07T10:33:25.232Z,7.80
2023-03-07T10:35:34.279Z,7.20
2023-03-07T10:37:44.305Z,9.25
2023-03-07T10:39:52.464Z,9.25
2023-03-07T10:41:55.789Z,9.55
2023-03-07T10:43:58.918Z,6.72
2023-03-07T10:46:22.359Z,8.45
2023-03-07T10:48:28.811Z,7.20
2023-03-07T10:50:36.525Z,6.72
2023-03-07T10:52:43.368Z,7.22
2023-03-07T10:54:45.785Z,10.55
2023-03-07T10:57:03.004Z,3.75
2023-03-07T10:59:10.040Z,8.88
2023-03-07T11:01:16.817Z,9.18
2023-03-07T11:03:25.955Z,8.05
2023-03-07T11:05:32.994Z,8.80
2023-03-07T11:07:36.840Z,5.32
2023-03-07T11:09:47.913Z,7.75
2023-03-07T11:11:51.156Z,11.07
2023-03-07T11:13:59.718Z,6.53
2023-03-07T11:16:12.025Z,9.88
2023-03-07T11:18:20.748Z,6.75
2023-03-07T11:20:25.850Z,5.70
2023-03-07T11:22:34.429Z,10.57
2023-03-07T11:24:40.266Z,4.65
2023-03-07T11:26:42.524Z,5.85
2023-03-07T11:28:45.000Z,5.47
2023-03-07T11:30:54.126Z,6.93
2023-03-07T11:33:03.844Z,7.63
2023-03-07T11:35:15.784Z,8.60
2023-03-07T11:37:23.714Z,5.95
2023-03-07T11:39:38.954Z,5.25
2023-03-07T11:41:46.178Z,5.55
2023-03-07T11:43:54.675Z,9.32
2023-03-07T11:46:08.098Z,8.35
2023-03-07T11:48:21.237Z,7.80
2023-03-07T11:50:30.284Z,5.80
2023-03-07T11:52:34.277Z,9.18
2023-03-07T11:54:46.661Z,8.70
2023-03-07T11:56:54.574Z,7.32
2023-03-07T11:59:08.105Z,7.10
2023-03-07T12:01:12.942Z,5.55
2023-03-07T12:03:25.409Z,6.32
2023-03-07T12:05:31.568Z,10.82
2023-03-07T12:07:37.256Z,9.10
2023-03-07T12:09:45.778Z,9.98
2023-03-07T12:11:54.857Z,7.95
2023-03-07T12:14:03.787Z,8.85
2023-03-07T12:16:11.702Z,6.72
2023-03-07T12:18:17.560Z,9.20
2023-03-07T12:20:28.541Z,10.07
2023-03-07T12:22:37.230Z,8.13
2023-03-07T12:24:46.039Z,12.50
2023-03-07T12:26:57.238Z,8.55
2023-03-07T12:29:04.265Z,7.97
2023-03-07T12:31:11.404Z,7.75
2023-03-07T12:33:27.058Z,5.82
2023-03-07T12:35:42.601Z,5.97
2023-03-07T12:37:52.932Z,9.07
2023-03-07T12:40:02.735Z,7.70
2023-03-07T12:42:15.403Z,4.35
2023-03-07T12:44:33.644Z,4.85
2023-03-07T12:46:43.803Z,5.32
2023-03-07T12:48:54.099Z,13.68
2023-03-07T12:51:05.100Z,5.80
2023-03-07T12:53:13.941Z,6.00
2023-03-07T12:55:25.206Z,8.43
2023-03-07T12:57:34.521Z,5.07
2023-03-07T12:59:43.248Z,7.40
2023-03-07T13:02:01.817Z,3.08
2023-03-07T13:04:15.081Z,4.30
2023-03-07T13:06:23.333Z,6.80
2023-03-07T13:08:28.859Z,6.15
2023-03-07T13:10:32.291Z,5.97
2023-03-07T13:12:37.358Z,4.10
2023-03-07T13:14:45.640Z,8.63
2023-03-07T13:16:48.451Z,7.82
2023-03-07T13:18:53.115Z,4.63
2023-03-07T13:21:07.409Z,4.38
2023-03-07T13:23:21.475Z,3.38
2023-03-07T13:25:27.076Z,8.10
2023-03-07T13:27:44.830Z,6.05
2023-03-07T13:29:53.879Z,6.30
2023-03-07T13:31:59.451Z,6.22
2023-03-07T13:34:24.838Z,4.40
2023-03-07T13:36:34.960Z,4.38
2023-03-07T13:38:40.923Z,5.60
2023-03-07T13:40:45.103Z,4.78
2023-03-07T13:42:52.520Z,6.18
2023-03-07T13:44:57.179Z,6.40
2023-03-07T13:47:01.715Z,4.95
2023-03-07T13:49:04.217Z,6.05
2023-03-07T13:51:09.405Z,4.60
2023-03-07T13:53:17.384Z,5.78
2023-03-07T13:55:26.022Z,5.05
2023-03-07T13:57:37.731Z,4.97
2023-03-07T13:59:49.861Z,4.13
2023-03-07T14:01:58.585Z,2.70
2023-03-07T14:04:07.392Z,8.45
2023-03-07T14:06:17.700Z,5.05
2023-03-07T14:08:26.963Z,7.35
2023-03-07T14:10:31.770Z,3.65
2023-03-07T14:12:45.641Z,2.58
2023-03-07T14:14:57.623Z,4.03
2023-03-07T14:17:06.449Z,3.90
2023-03-07T14:19:13.662Z,2.95
2023-03-07T14:21:20.527Z,5.38
2023-03-07T14:23:31.716Z,3.60
2023-03-07T14:25:38.722Z,6.95
2023-03-07T14:27:47.302Z,4.05
2023-03-07T14:29:54.786Z,4.38
2023-03-07T14:31:59.643Z,4.95
2023-03-07T14:34:04.366Z,7.32
2023-03-07T14:36:13.117Z,7.97
2023-03-07T14:38:21.717Z,3.92
2023-03-07T14:40:30.840Z,4.82
2023-03-07T14:42:36.521Z,3.80
2023-03-07T14:44:47.404Z,3.47
2023-03-07T14:49:01.548Z,2.78
2023-03-07T14:51:16.674Z,5.38
2023-03-07T14:53:26.278Z,2.85
2023-03-07T14:55:36.577Z,2.80
2023-03-07T14:57:46.291Z,5.40
2023-03-07T14:59:54.658Z,4.45
2023-03-07T15:01:58.899Z,4.07
2023-03-07T15:04:02.879Z,4.30
2023-03-07T15:06:14.285Z,5.82
2023-03-07T15:08:21.641Z,3.78
2023-03-07T15:10:30.513Z,3.83
2023-03-07T15:12:33.671Z,5.78
2023-03-07T15:14:46.985Z,4.97
2023-03-07T15:16:57.313Z,4.63
2023-03-07T15:19:04.561Z,7.00
2023-03-07T15:21:12.729Z,6.97
2023-03-07T15:23:22.514Z,5.55
2023-03-07T15:25:26.201Z,8.43
2023-03-07T15:27:31.776Z,5.63
2023-03-07T15:29:34.584Z,8.82
2023-03-07T15:31:42.986Z,6.18
2023-03-07T15:33:45.189Z,5.00
2023-03-07T15:36:09.653Z,4.70
2023-03-07T15:38:19.152Z,7.38
2023-03-07T15:40:22.595Z,5.90
2023-03-07T15:42:24.890Z,6.05
2023-03-07T15:44:27.200Z,4.65
2023-03-07T15:46:31.910Z,6.00
2023-03-07T15:48:43.412Z,9.15
2023-03-07T15:50:54.137Z,6.35
2023-03-07T15:53:06.636Z,9.00
2023-03-07T15:55:19.083Z,4.72
2023-03-07T15:57:25.908Z,7.15
2023-03-07T15:59:34.096Z,6.97
2023-03-07T16:01:36.613Z,5.05
2023-03-07T16:03:49.669Z,9.95
2023-03-07T16:05:52.697Z,6.82
2023-03-07T16:07:57.260Z,8.98
2023-03-07T16:10:01.946Z,4.30
2023-03-07T16:12:05.881Z,6.57
2023-03-07T16:14:22.574Z,5.70
2023-03-07T16:16:28.933Z,7.03
2023-03-07T16:18:35.176Z,5.15
2023-03-07T16:20:37.409Z,4.55
2023-03-07T16:22:39.620Z,6.18
2023-03-07T16:24:42.758Z,6.50
2023-03-07T16:26:47.008Z,8.20
2023-03-07T16:28:52.763Z,7.50
2023-03-07T16:30:57.940Z,6.10
2023-03-07T16:33:00.443Z,12.57
2023-03-07T16:35:02.743Z,7.65
2023-03-07T16:37:07.476Z,7.47
2023-03-07T16:39:11.319Z,4.80
2023-03-07T16:41:17.982Z,5.28
2023-03-07T16:43:24.241Z,9.95
2023-03-07T16:45:28.994Z,6.82
2023-03-07T16:47:31.650Z,7.18
2023-03-07T16:49:33.960Z,5.40
2023-03-07T16:51:36.279Z,7.85
2023-03-07T16:53:38.829Z,6.22
2023-03-07T16:55:41.718Z,5.47
2023-03-07T16:57:48.779Z,7.47
2023-03-07T16:59:51.801Z,6.18
2023-03-07T17:01:55.128Z,5.18
2023-03-07T17:03:57.922Z,9.25
2023-03-07T17:06:00.751Z,6.13
2023-03-07T17:08:03.187Z,7.05
2023-03-07T17:10:08.565Z,6.07
2023-03-07T17:12:11.873Z,6.20
2023-03-07T17:14:16.577Z,6.72
2023-03-07T17:16:20.696Z,10.07
2023-03-07T17:18:23.762Z,8.20
2023-03-07T17:20:26.843Z,8.82
2023-03-07T17:22:31.967Z,7.35
2023-03-07T17:24:34.943Z,6.97
2023-03-07T17:26:43.422Z,5.68
2023-03-07T17:28:46.876Z,7.80
2023-03-07T17:30:50.422Z,6.15
2023-03-07T17:32:53.684Z,9.43
2023-03-07T17:34:55.962Z,8.35
2023-03-07T17:37:00.607Z,7.40
2023-03-07T17:39:03.079Z,5.43
2023-03-07T17:41:08.402Z,5.47
2023-03-07T17:43:18.957Z,8.60
2023-03-07T17:45:23.159Z,6.47
2023-03-07T17:47:27.812Z,6.85
2023-03-07T17:49:35.932Z,8.52
2023-03-07T17:51:39.835Z,5.95
2023-03-07T17:53:45.911Z,7.05
2023-03-07T17:55:50.308Z,4.95
2023-03-07T17:57:53.091Z,6.55
2023-03-07T17:59:56.681Z,7.30
2023-03-07T18:01:59.391Z,6.38
2023-03-07T18:04:06.638Z,6.38
2023-03-07T18:06:09.329Z,6.95
2023-03-07T18:08:14.598Z,5.78
2023-03-07T18:10:17.668Z,8.38
2023-03-07T18:12:26.512Z,5.80
2023-03-07T18:14:32.757Z,7.60
2023-03-07T18:16:38.036Z,8.45
2023-03-07T18:18:57.770Z,10.55
2023-03-07T18:21:07.025Z,8.25
2023-03-07T18:23:09.733Z,9.93
2023-03-07T18:25:15.913Z,10.00
2023-03-07T18:27:18.772Z,8.20
2023-03-07T18:29:23.333Z,7.85
2023-03-07T18:31:29.001Z,11.95
2023-03-07T18:33:32.774Z,9.15
2023-03-07T18:35:37.869Z,10.48
2023-03-07T18:37:40.379Z,11.70
2023-03-07T18:39:43.148Z,9.18
2023-03-07T18:41:45.597Z,8.88
2023-03-07T18:43:48.606Z,10.85
2023-03-07T18:45:51.338Z,6.82
2023-03-07T18:47:54.203Z,9.75
2023-03-07T18:49:58.034Z,11.07
2023-03-07T18:52:00.573Z,9.77
2023-03-07T18:54:04.107Z,7.55
2023-03-07T18:56:08.598Z,6.30
2023-03-07T18:58:11.236Z,6.05
2023-03-07T19:00:16.575Z,9.43
2023-03-07T19:02:19.260Z,9.18
2023-03-07T19:04:21.963Z,9.15
2023-03-07T19:06:26.268Z,7.90
2023-03-07T19:08:29.045Z,8.85
2023-03-07T19:10:35.151Z,8.80
2023-03-07T19:12:41.870Z,8.73
2023-03-07T19:14:44.751Z,8.43
2023-03-07T19:16:49.750Z,10.20
2023-03-07T19:18:54.298Z,7.78
2023-03-07T19:20:59.127Z,10.23
2023-03-07T19:23:02.397Z,7.80
2023-03-07T19:25:07.021Z,9.25
2023-03-07T19:27:10.386Z,8.05
2023-03-07T19:29:14.090Z,9.00
2023-03-07T19:31:19.845Z,7.50
2023-03-07T19:33:25.553Z,9.20
2023-03-07T19:35:29.622Z,8.35
2023-03-07T19:37:32.898Z,11.02
2023-03-07T19:39:37.820Z,7.60
2023-03-07T19:41:41.079Z,10.45
2023-03-07T19:43:43.429Z,10.07
2023-03-07T19:45:45.655Z,8.65
2023-03-07T19:47:50.943Z,8.85
2023-03-07T19:49:53.343Z,8.23
2023-03-07T19:51:56.352Z,6.15
2023-03-07T19:53:59.301Z,10.98
2023-03-07T19:56:09.498Z,8.20
2023-03-07T19:58:12.292Z,10.00
2023-03-07T20:00:15.792Z,8.82
2023-03-07T20:02:21.372Z,8.40
2023-03-07T20:04:28.585Z,8.98
2023-03-07T20:06:32.964Z,8.57
2023-03-07T20:08:36.630Z,9.95
2023-03-07T20:10:41.122Z,10.25
2023-03-07T20:12:45.050Z,10.88
2023-03-07T20:14:48.994Z,9.38
2023-03-07T20:16:53.043Z,11.95
2023-03-07T20:18:57.698Z,13.30
2023-03-07T20:21:06.234Z,17.85
2023-03-07T20:23:11.361Z,12.55
2023-03-07T20:25:15.598Z,11.40
2023-03-07T20:27:22.568Z,10.25
2023-03-07T20:29:25.534Z,14.13
2023-03-07T20:31:28.066Z,11.90
2023-03-07T20:33:30.560Z,15.85
2023-03-07T20:35:33.386Z,12.02
2023-03-07T20:37:36.264Z,12.35
2023-03-07T20:39:43.756Z,14.73
2023-03-07T20:41:45.851Z,11.18
2023-03-07T20:43:48.929Z,12.63
2023-03-07T20:45:50.911Z,13.57
2023-03-07T20:47:53.163Z,12.43
2023-03-07T20:49:55.285Z,15.75
2023-03-07T20:51:57.309Z,14.20
2023-03-07T20:54:02.813Z,14.77
2023-03-07T20:56:06.375Z,12.75
2023-03-07T20:58:08.475Z,15.30
2023-03-07T21:00:11.754Z,13.90
2023-03-07T21:02:13.758Z,14.02
2023-03-07T21:04:18.581Z,12.80
2023-03-07T21:06:23.410Z,12.98
2023-03-07T21:08:26.689Z,14.25
2023-03-07T21:10:29.042Z,14.90
2023-03-07T21:12:31.119Z,17.38
2023-03-07T21:14:33.067Z,12.00
2023-03-07T21:16:35.028Z,11.55
2023-03-07T21:18:38.606Z,14.85
2023-03-07T21:20:41.840Z,11.85
2023-03-07T21:22:47.326Z,12.45
2023-03-07T21:24:51.129Z,12.15
2023-03-07T21:26:54.257Z,9.90
2023-03-07T21:28:59.899Z,14.13
2023-03-07T21:31:05.887Z,15.27
2023-03-07T21:33:08.021Z,11.52
2023-03-07T21:35:12.654Z,11.55
2023-03-07T21:37:16.317Z,12.18
2023-03-07T21:39:18.881Z,10.38
2023-03-07T21:41:26.112Z,12.38
2023-03-07T21:43:29.197Z,12.32
2023-03-07T21:45:33.749Z,11.60
2023-03-07T21:47:38.386Z,9.68
2023-03-07T21:49:41.137Z,11.43
2023-03-07T21:51:44.390Z,12.40
2023-03-07T21:53:46.531Z,12.57
2023-03-07T21:55:54.967Z,14.63
2023-03-07T21:57:56.956Z,12.10
2023-03-07T22:00:00.214Z,12.30
2023-03-07T22:02:02.633Z,13.18
2023-03-07T22:04:04.498Z,12.82
2023-03-07T22:06:08.430Z,11.20
2023-03-07T22:08:10.718Z,12.70
2023-03-07T22:10:12.605Z,11.32
2023-03-07T22:12:14.566Z,12.68
2023-03-07T22:14:16.412Z,10.75
2023-03-07T22:16:21.632Z,14.70
2023-03-07T22:18:25.930Z,9.98
2023-03-07T22:20:27.983Z,13.18
2023-03-07T22:22:29.946Z,11.60
2023-03-07T22:24:32.420Z,15.70
2023-03-07T22:26:34.322Z,10.93
2023-03-07T22:28:36.817Z,10.07
2023-03-07T22:30:38.792Z,11.25
2023-03-07T22:32:43.713Z,11.30
2023-03-07T22:34:45.612Z,13.10
2023-03-07T22:36:51.323Z,13.70
2023-03-07T22:38:55.457Z,11.18
2023-03-07T22:41:01.567Z,10.15
2023-03-07T22:43:03.525Z,10.70
2023-03-07T22:45:06.259Z,10.48
2023-03-07T22:47:08.308Z,13.43
2023-03-07T22:49:11.248Z,11.20
2023-03-07T22:51:15.409Z,11.70
2023-03-07T22:53:17.577Z,9.45
2023-03-07T22:55:20.089Z,8.68
2023-03-07T22:57:25.928Z,10.63
2023-03-07T22:59:28.261Z,11.15
2023-03-07T23:01:30.516Z,8.90
2023-03-07T23:03:32.435Z,8.90
2023-03-07T23:05:36.428Z,10.32
2023-03-07T23:07:38.573Z,13.30
2023-03-07T23:09:40.697Z,12.70
2023-03-07T23:12:53.933Z,14.27
2023-03-07T23:14:59.274Z,10.57
2023-03-07T23:17:01.487Z,14.18
2023-03-07T23:19:03.867Z,11.77
2023-03-07T23:21:07.387Z,10.82
2023-03-07T23:23:09.553Z,10.88
2023-03-07T23:25:12.287Z,13.13
2023-03-07T23:27:14.142Z,10.07
2023-03-07T23:29:16.107Z,20.70
2023-03-07T23:31:21.878Z,11.32
2023-03-07T23:33:24.451Z,9.70
2023-03-07T23:35:29.942Z,10.48
2023-03-07T23:37:31.992Z,9.43
2023-03-07T23:39:33.868Z,9.02
2023-03-07T23:41:36.238Z,8.63
2023-03-07T23:43:38.499Z,12.02
2023-03-07T23:45:41.046Z,8.55
2023-03-07T23:47:43.110Z,12.35
2023-03-07T23:49:45.012Z,9.35
2023-03-07T23:51:47.003Z,9.88
2023-03-07T23:53:49.132Z,11.80
2023-03-07T23:55:51.058Z,8.73
2023-03-07T23:57:53.195Z,18.90
2023-03-07T23:59:55.108Z,12.85
